Oakdale, NY

5:14 AM EDT on October 25, 2014 (GMT -0400)
KNYSAYVI4 | Change Station
CLOSE
Current Station
Personal Weather Station
Location: Sayville, NY
Elevation: 36 ft
Nearby Weather Stations

Elev 36 ft 40.75 °N, 73.10 °W | Updated 5 seconds ago

Clear
Clear
44.4 °F
Feels Like 44 °F
N
0.0
Wind Variable Wind from North
Gusts 0.0 mph

Today
High -- | Low -- °F
--% Chance of Precip.
Yesterday
High -- | Low -- °F
Precip. -- in
7:14 AM 5:57 PM
New Moon, 2% visible
Pressure 29.82 in
Visibility 10.0 miles
Clouds Clear
Windchill 44 °F
Dew Point 43 °F
Humidity 94%
Rainfall 0.00 in
Snow Depth Not available.
UV 0 out of 12
Pollen .10 out of 12
Ozone Good
Flu Activity Sporadic
METAR KISP 250856Z AUTO 27004KT 10SM CLR 08/06 A2982 RMK AO2 SLP097 T00830056 50003

More Conditions Fewer Conditions

Pressure 29.82 in
Visibility 10.0 miles
Clouds Clear
Windchill 44 °F
Dew Point 43 °F
Humidity 94%
Rainfall 0.00 in
Snow Depth Not available.
UV 0 out of 12
Pollen .10 out of 12
Ozone Good
Flu Activity Sporadic
METAR KISP 250856Z AUTO 27004KT 10SM CLR 08/06 A2982 RMK AO2 SLP097 T00830056 50003

More Conditions Fewer Conditions

10-Day Weather Forecast

Almanac

Astronomy

Oct. 25, 2014 Rise Set
Actual Time 7:14 AM EDT 5:57 PM EDT
Civil Twilight 6:46 AM EDT 6:25 PM EDT
Nautical Twilight 6:14 AM EDT 6:57 PM EDT
Astronomical Twilight 5:42 AM EDT 7:29 PM EDT
Moon 8:51 AM EDT 7:18 PM EDT
Length of Visible Light 11h 39m
Length of Day
10h 43m
Tomorrow will be 2m 29s shorter.
New Moon, 2% of the Moon is Illuminated
Today
New Moon
Oct 30
First Quarter
Nov 6
Full
Nov 14
Last Quarter
Nov 22
New

Today's Extremes

State Highs State Lows

Community

WunderPhotos

Upload Photos

1,764,796 photos uploaded!

Nearby

Air Quality

  Air Quality AQ Index Pollutant
Yesterday Good
OZONE
Current Good
OZONE
Saturday Good
PM2.5
Sunday Good
PM2.5
Monday Good
PM2.5

Snow Depth

Station Depth Elevation
No new snow has been reported.

Earthquake Activity

City Distance Mag. Time & Date
No recent earthquake activity has been reported nearby.
Minimum magnitude displayed is 2.5.

Coastal Water Temperatures

Place Temperature
No Stations Reporting

Nearby Weather Stations